Time;durP1;ratioP1;P1;durP2;ratioP2;P2;SDS_P1;SDS_P2;PMS_P1;PMS_P2;Temp;Humidity;BMP_temperature;BMP_pressure;BME280_temperature;BME280_humidity;BME280_pressure;Samples;Min_cycle;Max_cycle;Signal;HPM_P1;HPM_P2
2022/12/05 00:02:31;;;;;;;;;;;;;;;;;;5049642;28;20300;-77
2022/12/05 00:05:00;;;;;;;14.23;6.70;;;;;;;;;;5041658;28;20365;-78
2022/12/05 00:07:33;;;;;;;14.85;6.32;;;;;;;;;;5035927;28;20045;-78
2022/12/05 00:10:06;;;;;;;11.95;7.05;;;;;;;;;;5037279;28;20053;-80
2022/12/05 00:12:39;;;;;;;19.05;7.40;;;;;;;;;;5039598;28;20052;-79
2022/12/05 00:15:12;;;;;;;14.77;6.82;;;;;;;;;;5036112;28;20498;-79
2022/12/05 00:17:45;;;;;;;18.00;8.15;;;;;;;;;;5037897;28;20056;-80
2022/12/05 00:20:12;;;;;;;;;;;;;;;;;;5037125;28;20049;-77
2022/12/05 00:22:47;;;;;;;11.43;6.07;;;;;;;;;;5044849;28;20396;-78
2022/12/05 00:25:14;;;;;;;;;;;;;;;;;;5044981;28;20517;-78
2022/12/05 00:27:47;;;;;;;;;;;;;;;;;;5048190;28;19932;-78
2022/12/05 00:30:14;;;;;;;;;;;;;;;;;;5040183;28;19951;-78
2022/12/05 00:32:42;;;;;;;;;;;;;;;;;;5039503;28;19925;-78
2022/12/05 00:35:09;;;;;;;;;;;;;;;;;;5040464;28;19925;-78
2022/12/05 00:37:42;;;;;;;;;;;;;;;;;;5042403;28;19921;-79
2022/12/05 00:40:14;;;;;;;;;;;;;;;;;;5041415;28;19925;-79
2022/12/05 00:42:49;;;;;;;9.48;5.03;;;;;;;;;;5043307;28;19932;-78
2022/12/05 00:45:22;;;;;;;11.73;5.38;;;;;;;;;;5038081;28;20376;-78
2022/12/05 00:47:54;;;;;;;13.18;6.45;;;;;;;;;;5034373;28;20080;-79
2022/12/05 00:50:22;;;;;;;;;;;;;;;;;;5038996;28;20386;-79
2022/12/05 00:52:55;;;;;;;13.90;7.05;;;;;;;;;;5043652;28;19931;-79
2022/12/05 00:55:22;;;;;;;;;;;;;;;;;;5039471;28;20045;-79
2022/12/05 00:57:50;;;;;;;;;;;;;;;;;;5039109;28;20377;-79
2022/12/05 01:00:20;;;;;;;12.57;5.60;;;;;;;;;;5044858;28;19932;-79
2022/12/05 01:02:52;;;;;;;12.52;6.32;;;;;;;;;;5037693;28;20394;-78
2022/12/05 01:05:25;;;;;;;12.15;5.93;;;;;;;;;;5037701;28;20060;-79
2022/12/05 01:07:53;;;;;;;;;;;;;;;;;;5044240;28;20048;-78
2022/12/05 01:10:20;;;;;;;;;;;;;;;;;;5045660;28;19928;-78
2022/12/05 01:12:53;;;;;;;17.88;6.25;;;;;;;;;;5042046;28;19921;-78
2022/12/05 01:15:21;;;;;;;;;;;;;;;;;;5045369;28;20425;-78
2022/12/05 01:17:53;;;;;;;;;;;;;;;;;;5044955;28;19936;-79
2022/12/05 01:20:21;;;;;;;;;;;;;;;;;;5043487;28;19921;-78
2022/12/05 01:22:55;;;;;;;;;;;;;;;;;;5044594;28;19925;-78
2022/12/05 01:25:22;;;;;;;;;;;;;;;;;;5043126;28;19928;-79
2022/12/05 01:27:50;;;;;;;;;;;;;;;;;;5043767;28;20231;-79
2022/12/05 01:30:19;;;;;;;;;;;;;;;;;;5045285;28;19920;-78
2022/12/05 01:32:51;;;;;;;;;;;;;;;;;;5044841;28;19932;-79
2022/12/05 01:35:19;;;;;;;;;;;;;;;;;;5045041;28;19929;-79
2022/12/05 01:37:51;;;;;;;;;;;;;;;;;;5040723;28;19925;-80
2022/12/05 01:40:19;;;;;;;;;;;;;;;;;;5046224;28;19928;-79
2022/12/05 01:42:46;;;;;;;;;;;;;;;;;;5042061;28;19929;-78
2022/12/05 01:45:19;;;;;;;;;;;;;;;;;;5042064;28;19920;-78
2022/12/05 01:47:46;;;;;;;;;;;;;;;;;;5045257;28;19921;-79
2022/12/05 01:50:19;;;;;;;;;;;;;;;;;;5044999;28;19928;-78
2022/12/05 01:52:47;;;;;;;;;;;;;;;;;;5047523;28;19921;-78
2022/12/05 01:55:14;;;;;;;;;;;;;;;;;;5045888;28;19943;-79
2022/12/05 01:57:42;;;;;;;;;;;;;;;;;;5039934;28;19921;-78
2022/12/05 02:00:14;;;;;;;;;;;;;;;;;;5046069;28;19921;-78
2022/12/05 02:02:47;;;;;;;;;;;;;;;;;;5041208;28;19932;-78
2022/12/05 02:05:19;;;;;;;;;;;;;;;;;;5038410;28;20285;-78
2022/12/05 02:07:52;;;;;;;;;;;;;;;;;;5040753;28;20392;-79
2022/12/05 02:10:24;;;;;;;;;;;;;;;;;;5040492;28;19921;-77
2022/12/05 02:12:57;;;;;;;;;;;;;;;;;;5060102;28;20301;-78
2022/12/05 02:15:24;;;;;;;;;;;;;;;;;;5043171;28;19924;-78
2022/12/05 02:17:52;;;;;;;;;;;;;;;;;;5042124;28;19921;-79
2022/12/05 02:20:24;;;;;;;;;;;;;;;;;;5042286;28;19921;-77
2022/12/05 02:22:58;;;;;;;;;;;;;;;;;;5042390;28;19933;-78
2022/12/05 02:25:30;;;;;;;;;;;;;;;;;;5038690;28;19944;-79
2022/12/05 02:27:58;;;;;;;;;;;;;;;;;;5048032;28;19929;-78
2022/12/05 02:30:30;;;;;;;;;;;;;;;;;;5047276;28;20393;-78
2022/12/05 02:32:58;;;;;;;;;;;;;;;;;;5047840;28;19932;-78
2022/12/05 02:35:30;;;;;;;;;;;;;;;;;;5040234;28;19925;-79
2022/12/05 02:37:58;;;;;;;;;;;;;;;;;;5054199;28;19925;-78
2022/12/05 02:40:25;;;;;;;;;;;;;;;;;;5046119;28;19924;-80
2022/12/05 02:42:58;;;;;;;;;;;;;;;;;;5044485;28;20358;-79
2022/12/05 02:45:30;;;;;;;;;;;;;;;;;;5041525;28;19925;-78
2022/12/05 02:48:03;;;;;;;;;;;;;;;;;;5042975;28;19921;-77
2022/12/05 02:50:31;;;;;;;;;;;;;;;;;;5041897;28;19929;-79
2022/12/05 02:53:03;;;;;;;;;;;;;;;;;;5038513;28;19921;-77
2022/12/05 02:55:36;;;;;;;;;;;;;;;;;;5045103;28;20365;-77
2022/12/05 02:58:03;;;;;;;;;;;;;;;;;;5042740;28;19921;-78
2022/12/05 03:00:36;;;;;;;;;;;;;;;;;;5046808;28;19925;-78
2022/12/05 03:03:08;;;;;;;;;;;;;;;;;;5042293;28;19932;-79
2022/12/05 03:05:41;;;;;;;;;;;;;;;;;;5043606;28;19920;-78
2022/12/05 03:08:09;;;;;;;;;;;;;;;;;;5042089;28;19921;-79
2022/12/05 03:10:37;;;;;;;;;;;;;;;;;;5041494;28;20571;-80
2022/12/05 03:13:09;;;;;;;;;;;;;;;;;;5042088;28;19948;-78
2022/12/05 03:15:42;;;;;;;;;;;;;;;;;;5043617;28;19921;-78
2022/12/05 03:18:14;;;;;;;;;;;;;;;;;;5040628;28;19928;-78
2022/12/05 03:20:42;;;;;;;;;;;;;;;;;;5038618;28;19928;-78
2022/12/05 03:23:09;;;;;;;;;;;;;;;;;;5061412;28;19932;-79
2022/12/05 03:25:42;;;;;;;;;;;;;;;;;;5042288;28;19921;-78
2022/12/05 03:28:09;;;;;;;;;;;;;;;;;;5045039;28;20377;-78
2022/12/05 03:30:37;;;;;;;;;;;;;;;;;;5041536;28;19921;-78
2022/12/05 03:33:05;;;;;;;;;;;;;;;;;;5048794;28;20281;-79
2022/12/05 03:35:32;;;;;;;;;;;;;;;;;;5042928;28;19925;-80
2022/12/05 03:38:05;;;;;;;;;;;;;;;;;;5038327;28;19928;-79
2022/12/05 03:40:37;;;;;;;;;;;;;;;;;;5038306;28;19921;-77
2022/12/05 03:43:10;;;;;;;;;;;;;;;;;;5039691;28;20400;-78
2022/12/05 03:45:37;;;;;;;;;;;;;;;;;;5041326;28;19931;-79
2022/12/05 03:48:05;;;;;;;;;;;;;;;;;;5047170;28;19932;-78
2022/12/05 03:50:38;;;;;;;;;;;;;;;;;;5038039;28;20000;-78
2022/12/05 03:53:05;;;;;;;;;;;;;;;;;;5037675;28;19925;-78
2022/12/05 03:55:38;;;;;;;;;;;;;;;;;;5042215;28;19936;-78
2022/12/05 03:58:10;;;;;;;;;;;;;;;;;;5047033;28;19928;-78
2022/12/05 04:00:38;;;;;;;;;;;;;;;;;;5042428;28;19920;-78
2022/12/05 04:03:10;;;;;;;;;;;;;;;;;;5035883;28;19925;-79
2022/12/05 04:05:38;;;;;;;;;;;;;;;;;;5046163;28;19925;-79
2022/12/05 04:08:05;;;;;;;;;;;;;;;;;;5038818;28;20386;-80
2022/12/05 04:10:47;;;;;;;;;;;;;;;;;;5047655;28;19928;-77
2022/12/05 04:13:17;;;;;;;;;;;;;;;;;;5041116;28;19928;-79
2022/12/05 04:18:51;;;;;;;;;;;;;;;;;;5018463;28;20067;-80
2022/12/05 04:26:49;;;;;;;;;;;;;;;;;;5038580;28;19931;-78
2022/12/05 04:29:17;;;;;;;;;;;;;;;;;;5040228;28;19921;-78
2022/12/05 04:31:44;;;;;;;;;;;;;;;;;;5041456;28;20618;-79
2022/12/05 04:34:17;;;;;;;;;;;;;;;;;;5045433;28;19933;-79
2022/12/05 04:36:49;;;;;;;;;;;;;;;;;;5044838;28;19931;-79
2022/12/05 04:39:17;;;;;;;;;;;;;;;;;;5042088;28;19928;-78
2022/12/05 04:41:49;;;;;;;;;;;;;;;;;;5040175;28;19995;-77
2022/12/05 04:44:22;;;;;;;;;;;;;;;;;;5044547;28;19932;-78
2022/12/05 04:46:54;;;;;;;;;;;;;;;;;;5036629;28;19928;-79
2022/12/05 04:49:22;;;;;;;;;;;;;;;;;;5042850;28;19921;-79
2022/12/05 04:51:54;;;;;;;;;;;;;;;;;;5060765;28;20369;-79
2022/12/05 04:54:22;;;;;;;;;;;;;;;;;;5039342;28;19925;-78
2022/12/05 04:56:54;;;;;;;;;;;;;;;;;;5046341;28;19988;-77
2022/12/05 04:59:27;;;;;;;;;;;;;;;;;;5044959;28;19940;-78
2022/12/05 05:02:00;;;;;;;;;;;;;;;;;;5055180;28;19933;-77
2022/12/05 05:04:32;;;;;;;;;;;;;;;;;;5042555;28;19921;-78
2022/12/05 05:07:05;;;;;;;;;;;;;;;;;;5039353;28;19928;-78
2022/12/05 05:09:37;;;;;;;;;;;;;;;;;;5055429;28;19928;-77
2022/12/05 05:12:05;;;;;;;;;;;;;;;;;;5040910;28;19921;-78
2022/12/05 05:14:32;;;;;;;;;;;;;;;;;;5058214;28;19924;-78
2022/12/05 05:17:05;;;;;;;;;;;;;;;;;;5056551;28;19921;-78
2022/12/05 05:19:33;;;;;;;;;;;;;;;;;;5045986;28;19928;-78
2022/12/05 05:22:05;;;;;;;;;;;;;;;;;;5041892;28;19921;-78
2022/12/05 05:24:38;;;;;;;;;;;;;;;;;;5038104;28;19928;-78
2022/12/05 05:27:10;;;;;;;;;;;;;;;;;;5039893;28;19925;-77
2022/12/05 05:29:38;;;;;;;;;;;;;;;;;;5041235;28;19931;-78
2022/12/05 05:32:05;;;;;;;;;;;;;;;;;;5040346;28;19928;-78
2022/12/05 05:34:33;;;;;;;;;;;;;;;;;;5039773;28;20373;-78
2022/12/05 05:37:05;;;;;;;;;;;;;;;;;;5043851;28;20376;-79
2022/12/05 05:39:37;;;;;;;;;;;;;;;;;;5044625;28;19921;-78
2022/12/05 05:42:10;;;;;;;;;;;;;;;;;;5041563;28;19928;-78
2022/12/05 05:44:43;;;;;;;;;;;;;;;;;;5049053;28;19925;-77
2022/12/05 05:47:15;;;;;;;;;;;;;;;;;;5040990;28;19921;-78
2022/12/05 05:49:43;;;;;;;;;;;;;;;;;;5037015;28;19921;-77
2022/12/05 05:52:15;;;;;;;;;;;;;;;;;;5039230;28;19928;-78
2022/12/05 05:54:48;;;;;;;;;;;;;;;;;;5044809;28;19921;-77
2022/12/05 05:57:15;;;;;;;;;;;;;;;;;;5039631;28;19921;-78
2022/12/05 05:59:43;;;;;;;;;;;;;;;;;;5043506;28;19925;-77
2022/12/05 06:02:15;;;;;;;;;;;;;;;;;;5042115;28;19921;-78
2022/12/05 06:04:43;;;;;;;;;;;;;;;;;;5044675;28;19921;-78
2022/12/05 06:07:15;;;;;;;;;;;;;;;;;;5056379;28;19928;-78
2022/12/05 06:09:43;;;;;;;;;;;;;;;;;;5043281;28;19928;-79
2022/12/05 06:12:16;;;;;;;;;;;;;;;;;;5042626;28;19921;-78
2022/12/05 06:14:48;;;;;;;;;;;;;;;;;;5041561;28;19921;-78
2022/12/05 06:17:21;;;;;;;;;;;;;;;;;;5044277;28;19931;-78
2022/12/05 06:19:48;;;;;;;;;;;;;;;;;;5059154;28;19991;-78
2022/12/05 06:22:16;;;;;;;;;;;;;;;;;;5042127;28;19921;-78
2022/12/05 06:24:43;;;;;;;;;;;;;;;;;;5045138;28;20349;-78
2022/12/05 06:27:16;;;;;;;;;;;;;;;;;;5038521;28;19929;-79
2022/12/05 06:29:43;;;;;;;;;;;;;;;;;;5043486;28;20286;-77
2022/12/05 06:32:11;;;;;;;;;;;;;;;;;;5043043;28;19932;-78
2022/12/05 06:34:43;;;;;;;;;;;;;;;;;;5040841;28;19988;-79
2022/12/05 06:37:16;;;;;;;;;;;;;;;;;;5063662;28;19921;-78
2022/12/05 06:39:49;;;;;;;;;;;;;;;;;;5044568;28;20377;-79
2022/12/05 06:42:21;;;;;;;;;;;;;;;;;;5042633;28;19951;-78
2022/12/05 06:44:49;;;;;;;;;;;;;;;;;;5046933;28;19927;-77
2022/12/05 06:47:16;;;;;;;;;;;;;;;;;;5046632;28;20388;-78
2022/12/05 06:49:44;;;;;;;;;;;;;;;;;;5043069;28;19928;-79
2022/12/05 06:52:17;;;;;;;;;;;;;;;;;;5044405;28;19921;-78
2022/12/05 06:54:49;;;;;;;;;;;;;;;;;;5039917;28;19928;-78
2022/12/05 06:57:17;;;;;;;;;;;;;;;;;;5038334;28;19920;-78
2022/12/05 06:59:44;;;;;;;;;;;;;;;;;;5043194;28;19932;-77
2022/12/05 07:02:11;;;;;;;;;;;;;;;;;;5041661;28;19928;-78
2022/12/05 07:04:44;;;;;;;;;;;;;;;;;;5048665;28;19920;-78
2022/12/05 07:07:12;;;;;;;;;;;;;;;;;;5047230;28;19925;-78
2022/12/05 07:09:52;;;;;;;;;;;;;;;;;;5041452;28;19931;-78
2022/12/05 07:12:25;;;;;;;;;;;;;;;;;;5057898;28;19924;-79
2022/12/05 07:14:57;;;;;;;;;;;;;;;;;;5040966;28;19932;-79
2022/12/05 07:17:25;;;;;;;;;;;;;;;;;;5041342;28;20285;-80
2022/12/05 07:19:57;;;;;;;;;;;;;;;;;;5039981;28;21631;-79
2022/12/05 07:22:25;;;;;;;;;;;;;;;;;;5044479;28;20453;-81
2022/12/05 07:24:53;;;;;;;;;;;;;;;;;;5041836;28;19932;-80
2022/12/05 07:27:20;;;;;;;;;;;;;;;;;;5037720;28;19925;-80
2022/12/05 07:29:53;;;;;;;;;;;;;;;;;;5038601;28;19932;-79
2022/12/05 07:32:20;;;;;;;;;;;;;;;;;;5038395;28;20392;-80
2022/12/05 07:34:48;;;;;;;;;;;;;;;;;;5039562;28;19925;-78
2022/12/05 07:37:20;;;;;;;;;;;;;;;;;;5041855;28;19928;-78
2022/12/05 07:39:48;;;;;;;;;;;;;;;;;;5028017;28;20481;-81
2022/12/05 07:42:15;;;;;;;;;;;;;;;;;;5035250;28;19921;-79
2022/12/05 07:44:48;;;;;;;;;;;;;;;;;;5029196;28;19928;-81
2022/12/05 07:47:15;;;;;;;;;;;;;;;;;;5026311;28;19935;-82
2022/12/05 07:49:48;;;;;;;;;;;;;;;;;;5037484;28;19928;-81
2022/12/05 07:52:20;;;;;;;;;;;;;;;;;;5032302;28;19967;-79
2022/12/05 07:54:53;;;;;;;;;;;;;;;;;;5024102;28;19929;-79
2022/12/05 07:57:20;;;;;;;;;;;;;;;;;;5029846;28;19928;-79
2022/12/05 07:59:53;;;;;;;;;;;;;;;;;;5028872;28;20627;-82
2022/12/05 08:02:20;;;;;;;;;;;;;;;;;;5026821;28;19929;-81
2022/12/05 08:04:48;;;;;;;;;;;;;;;;;;5023779;28;19940;-81
2022/12/05 08:07:20;;;;;;;;;;;;;;;;;;5029659;28;19928;-80
2022/12/05 08:09:48;;;;;;;;;;;;;;;;;;5026482;28;19936;-81
2022/12/05 08:12:15;;;;;;;;;;;;;;;;;;5028608;28;19933;-80
2022/12/05 08:14:48;;;;;;;;;;;;;;;;;;5027204;28;20794;-82
2022/12/05 08:17:20;;;;;;;;;;;;;;;;;;5026702;28;20773;-81
2022/12/05 08:19:53;;;;;;;;;;;;;;;;;;5023033;28;19929;-80
2022/12/05 08:22:20;;;;;;;;;;;;;;;;;;5022059;28;19939;-81
2022/12/05 08:24:48;;;;;;;;;;;;;;;;;;5021243;28;19929;-82
2022/12/05 08:27:20;;;;;;;;;;;;;;;;;;5023625;28;19929;-81
2022/12/05 08:29:53;;;;;;;;;;;;;;;;;;5029015;28;19928;-80
2022/12/05 08:32:20;;;;;;;;;;;;;;;;;;5026128;28;19932;-78
2022/12/05 08:34:53;;;;;;;;;;;;;;;;;;5028145;28;19928;-80
2022/12/05 08:37:26;;;;;;;;;;;;;;;;;;5027206;28;19936;-80
2022/12/05 08:39:58;;;;;;;;;;;;;;;;;;5023952;28;19932;-82
2022/12/05 08:42:26;;;;;;;;;;;;;;;;;;5025024;28;19928;-80
2022/12/05 08:44:53;;;;;;;;;;;;;;;;;;5040752;28;20388;-80
2022/12/05 08:47:21;;;;;;;;;;;;;;;;;;5034535;28;19940;-80
2022/12/05 08:49:53;;;;;;;;;;;;;;;;;;5023990;28;19928;-85
2022/12/05 08:52:21;;;;;;;;;;;;;;;;;;5023099;28;21007;-79
2022/12/05 08:54:49;;;;;;;;;;;;;;;;;;5027003;28;19935;-80
2022/12/05 08:57:21;;;;;;;;;;;;;;;;;;5027422;28;21182;-81
2022/12/05 08:59:49;;;;;;;;;;;;;;;;;;5025085;28;19929;-81
2022/12/05 09:02:16;;;;;;;;;;;;;;;;;;5020021;28;20748;-79
2022/12/05 09:04:44;;;;;;;;;;;;;;;;;;5018790;28;19940;-80
2022/12/05 09:07:17;;;;;;;;;;;;;;;;;;5020107;28;20596;-79
2022/12/05 09:09:44;;;;;;;;;;;;;;;;;;5024170;28;19936;-81
2022/12/05 09:12:17;;;;;;;;;;;;;;;;;;5032756;28;19936;-81
2022/12/05 09:14:44;;;;;;;;;;;;;;;;;;5023149;28;20674;-80
2022/12/05 09:17:12;;;;;;;;;;;;;;;;;;5022580;28;19935;-81
2022/12/05 09:19:45;;;;;;;;;;;;;;;;;;5019994;28;19936;-83
2022/12/05 09:22:12;;;;;;;;;;;;;;;;;;5023518;28;19936;-82
2022/12/05 09:24:45;;;;;;;;;;;;;;;;;;5024087;28;19928;-80
2022/12/05 09:27:18;;;;;;;;;;;;;;;;;;5027515;28;19928;-79
2022/12/05 09:29:45;;;;;;;;;;;;;;;;;;5049213;28;19928;-80
2022/12/05 09:32:13;;;;;;;;;;;;;;;;;;5023989;28;20313;-80
2022/12/05 09:34:45;;;;;;;;;;;;;;;;;;5022816;28;19944;-81
2022/12/05 09:37:13;;;;;;;;;;;;;;;;;;5029159;28;19928;-78
2022/12/05 09:39:46;;;;;;;;;;;;;;;;;;5024741;28;19936;-80
2022/12/05 09:42:18;;;;;;;;;;;;;;;;;;5026978;28;19924;-77
2022/12/05 09:44:46;;;;;;;;;;;;;;;;;;5024623;28;19929;-78
2022/12/05 09:47:13;;;;;;;;;;;;;;;;;;5019844;28;19928;-80
2022/12/05 09:49:46;;;;;;;;;;;;;;;;;;5040788;28;19932;-81
2022/12/05 09:52:18;;;;;;;;;;;;;;;;;;5027617;28;19928;-79
2022/12/05 09:54:52;;;;;;;;;;;;;;;;;;5034585;28;19928;-82
2022/12/05 09:57:19;;;;;;;;;;;;;;;;;;5026444;28;19929;-80
2022/12/05 09:59:47;;;;;;;;;;;;;;;;;;5027789;28;19929;-79
2022/12/05 10:02:19;;;;;;;;;;;;;;;;;;5028801;28;19929;-79
2022/12/05 10:04:54;;;;;;;;;;;;;;;;;;5022470;28;19928;-81
2022/12/05 10:07:26;;;;;;;;;;;;;;;;;;5028764;28;19936;-79
2022/12/05 10:09:54;;;;;;;;;;;;;;;;;;5019795;28;19936;-80
2022/12/05 10:12:26;;;;;;;;;;;;;;;;;;5019750;28;19928;-79
2022/12/05 10:14:59;;;;;;;;;;;;;;;;;;5019306;28;19936;-81
2022/12/05 10:17:32;;;;;;;;;;;;;;;;;;5024049;28;19935;-80
2022/12/05 10:20:00;;;;;;;;;;;;;;;;;;5023985;28;21253;-78
2022/12/05 10:22:27;;;;;;;;;;;;;;;;;;5041983;28;19921;-79
2022/12/05 10:25:00;;;;;;;;;;;;;;;;;;5041296;28;19929;-79
2022/12/05 10:27:32;;;;;;;;;;;;;;;;;;5026960;28;19928;-80
2022/12/05 10:30:05;;;;;;;;;;;;;;;;;;5021567;28;19929;-80
2022/12/05 10:32:32;;;;;;;;;;;;;;;;;;5017434;28;19929;-81
2022/12/05 10:35:00;;;;;;;;;;;;;;;;;;5021896;28;19951;-78
2022/12/05 10:37:29;;;;;;;;;;;;;;;;;;5024228;28;19928;-78
2022/12/05 10:39:57;;;;;;;;;;;;;;;;;;5021410;28;19940;-79
2022/12/05 10:42:24;;;;;;;;;;;;;;;;;;5022138;28;19928;-81
2022/12/05 10:44:57;;;;;;;;;;;;;;;;;;5026114;28;19947;-81
2022/12/05 10:47:30;;;;;;;;;;;;;;;;;;5024016;28;20297;-80
2022/12/05 10:49:57;;;;;;;;;;;;;;;;;;5027436;28;19929;-82
2022/12/05 10:52:30;;;;;;;;;;;;;;;;;;5025044;28;21142;-80
2022/12/05 10:54:57;;;;;;;;;;;;;;;;;;5024117;28;19929;-80
2022/12/05 10:57:30;;;;;;;;;;;;;;;;;;5027028;28;19935;-82
2022/12/05 11:00:02;;;;;;;;;;;;;;;;;;5022616;28;21241;-80
2022/12/05 11:02:35;;;;;;;;;;;;;;;;;;5022133;28;19935;-77
2022/12/05 11:05:03;;;;;;;;;;;;;;;;;;5025367;28;19956;-79
2022/12/05 11:07:30;;;;;;;;;;;;;;;;;;5025929;28;19943;-79
2022/12/05 11:10:03;;;;;;;;;;;;;;;;;;5031186;28;19929;-82
2022/12/05 11:12:31;;;;;;;;;;;;;;;;;;5026278;28;19929;-80
2022/12/05 11:15:03;;;;;;;;;;;;;;;;;;5044063;28;19925;-79
2022/12/05 11:17:36;;;;;;;;;;;;;;;;;;5023196;28;19928;-81
2022/12/05 11:20:04;;;;;;;;;;;;;;;;;;5024572;28;19928;-81
2022/12/05 11:22:36;;;;;;;;;;;;;;;;;;5020104;28;19929;-79
2022/12/05 11:25:04;;;;;;;;;;;;;;;;;;5021030;28;19935;-77
2022/12/05 11:27:36;;;;;;;;;;;;;;;;;;5023950;28;19929;-79
2022/12/05 11:30:09;;;;;;;;;;;;;;;;;;5023465;28;19929;-80
2022/12/05 11:32:41;;;;;;;;;;;;;;;;;;5037081;28;19928;-81
2022/12/05 11:35:14;;;;;;;;;;;;;;;;;;5019426;28;19929;-81
2022/12/05 11:37:46;;;;;;;;;;;;;;;;;;5021083;28;19929;-81
2022/12/05 11:40:19;;;;;;;;;;;;;;;;;;5019662;28;19929;-82
2022/12/05 11:42:51;;;;;;;;;;;;;;;;;;5019900;28;19929;-82
2022/12/05 11:45:24;;;;;;;;;;;;;;;;;;5025410;28;19935;-79
2022/12/05 11:47:56;;;;;;;;;;;;;;;;;;5023483;28;19928;-80
2022/12/05 11:50:24;;;;;;;;;;;;;;;;;;5021727;28;19928;-80
2022/12/05 11:52:52;;;;;;;;;;;;;;;;;;5019327;28;19936;-80
2022/12/05 11:55:19;;;;;;;;;;;;;;;;;;5024533;28;19925;-78
2022/12/05 11:57:52;;;;;;;;;;;;;;;;;;5023065;28;20463;-80
2022/12/05 12:00:25;;;;;;;;;;;;;;;;;;5026604;28;21212;-82
2022/12/05 12:02:52;;;;;;;;;;;;;;;;;;5024757;28;19960;-80
2022/12/05 12:05:20;;;;;;;;;;;;;;;;;;5021591;28;19936;-81
2022/12/05 12:07:47;;;;;;;;;;;;;;;;;;5025324;28;19931;-80
2022/12/05 12:10:20;;;;;;;;;;;;;;;;;;5027036;28;19936;-82
2022/12/05 12:12:52;;;;;;;;;;;;;;;;;;5023336;28;19929;-83
2022/12/05 12:15:25;;;;;;;;;;;;;;;;;;5025721;28;20419;-82
2022/12/05 12:17:52;;;;;;;;;;;;;;;;;;5032555;28;20460;-79
2022/12/05 12:20:20;;;;;;;;;;;;;;;;;;5029407;28;19928;-79
2022/12/05 12:22:53;;;;;;;;;;;;;;;;;;5021407;28;19936;-80
2022/12/05 12:25:20;;;;;;;;;;;;;;;;;;5025130;28;20409;-80
2022/12/05 12:27:48;;;;;;;;;;;;;;;;;;5020877;28;19935;-80
2022/12/05 12:30:20;;;;;;;;;;;;;;;;;;5017511;28;19929;-78
2022/12/05 12:32:53;;;;;;;;;;;;;;;;;;5021256;28;19929;-82
2022/12/05 12:35:25;;;;;;;;;;;;;;;;;;5014460;28;19935;-83
2022/12/05 12:37:53;;;;;;;;;;;;;;;;;;5019097;28;19939;-81
2022/12/05 12:40:26;;;;;;;;;;;;;;;;;;5019552;28;20482;-81
2022/12/05 12:42:58;;;;;;;;;;;;;;;;;;5014956;28;21256;-83
2022/12/05 12:45:31;;;;;;;;;;;;;;;;;;5023034;28;19928;-80
2022/12/05 12:48:04;;;;;;;;;;;;;;;;;;5021366;28;19951;-79
2022/12/05 12:50:31;;;;;;;;;;;;;;;;;;5019081;28;19928;-81
2022/12/05 12:53:04;;;;;;;;;;;;;;;;;;5026201;28;19929;-80
2022/12/05 12:55:37;;;;;;;;;;;;;;;;;;5018654;28;19929;-82
2022/12/05 12:58:04;;;;;;;;;;;;;;;;;;5021936;28;19929;-79
2022/12/05 13:00:37;;;;;;;;;;;;;;;;;;5024040;28;19936;-83
2022/12/05 13:03:09;;;;;;;;;;;;;;;;;;5036359;28;19929;-81
2022/12/05 13:05:37;;;;;;;;;;;;;;;;;;5020099;28;19936;-81
2022/12/05 13:08:04;;;;;;;;;;;;;;;;;;5021121;28;19947;-80
2022/12/05 13:10:38;;;;;;;;;;;;;;;;;;5023005;28;19925;-79
2022/12/05 13:13:05;;;;;;;;;;;;;;;;;;5023008;28;19928;-81
2022/12/05 13:15:33;;;;;;;;;;;;;;;;;;5038465;28;19921;-79
2022/12/05 13:18:05;;;;;;;;;;;;;;;;;;5023914;28;19951;-80
2022/12/05 13:20:33;;;;;;;;;;;;;;;;;;5037723;28;19928;-82
2022/12/05 13:23:00;;;;;;;;;;;;;;;;;;5023242;28;20754;-82
2022/12/05 13:25:33;;;;;;;;;;;;;;;;;;5026532;28;19928;-80
2022/12/05 13:28:07;;;;;;;;;;;;;;;;;;5021202;28;20377;-80
2022/12/05 13:30:56;;;;;;;;;;;;;;;;;;5025658;28;19950;-82
2022/12/05 13:33:27;;;;;;;;;;;;;;;;;;5013699;28;19939;-80
2022/12/05 13:44:20;;;;;;;;;;;;;;;;;;5019864;28;19929;-82
2022/12/05 13:46:53;;;;;;;;;;;;;;;;;;5043942;28;19935;-81
2022/12/05 13:49:25;;;;;;;;;;;;;;;;;;5019040;28;19928;-81
2022/12/05 13:51:53;;;;;;;;;;;;;;;;;;5031686;28;19929;-81
2022/12/05 13:54:20;;;;;;;;;;;;;;;;;;5020836;28;21817;-81
2022/12/05 13:56:53;;;;;;;;;;;;;;;;;;5016423;28;19935;-79
2022/12/05 13:59:25;;;;;;;;;;;;;;;;;;5018274;28;19929;-80
2022/12/05 14:01:58;;;;;;;;;;;;;;;;;;5023463;28;19929;-80
2022/12/05 14:04:26;;;;;;;;;;;;;;;;;;5025553;28;19932;-82
2022/12/05 14:06:53;;;;;;;;;;;;;;;;;;5020033;28;19944;-82
2022/12/05 14:09:26;;;;;;;;;;;;;;;;;;5021192;28;20005;-81
2022/12/05 14:11:58;;;;;;;;;;;;;;;;;;5023786;28;20493;-80
2022/12/05 14:14:31;;;;;;;;;;;;;;;;;;5014925;28;19940;-81
2022/12/05 14:17:05;;;;;;;;;;;;;;;;;;5027910;28;21238;-79
2022/12/05 14:19:38;;;;;;;;;;;;;;;;;;5042899;28;20356;-81
2022/12/05 14:22:06;;;;;;;;;;;;;;;;;;5026828;28;19928;-81
2022/12/05 14:24:33;;;;;;;;;;;;;;;;;;5026591;28;20379;-80
2022/12/05 14:27:06;;;;;;;;;;;;;;;;;;5028151;28;19929;-82
2022/12/05 14:29:33;;;;;;;;;;;;;;;;;;5024842;28;20799;-81
2022/12/05 14:32:01;;;;;;;;;;;;;;;;;;5020512;28;19925;-82
2022/12/05 14:34:34;;;;;;;;;;;;;;;;;;5030584;28;20626;-81
2022/12/05 14:37:01;;;;;;;;;;;;;;;;;;5036421;28;19928;-80
2022/12/05 14:39:34;;;;;;;;;;;;;;;;;;5026951;28;20718;-82
2022/12/05 14:42:07;;;;;;;;;;;;;;;;;;5028956;28;20863;-82
2022/12/05 14:44:34;;;;;;;;;;;;;;;;;;5025271;28;20265;-82
2022/12/05 14:47:07;;;;;;;;;;;;;;;;;;5027140;28;19929;-81
2022/12/05 14:49:39;;;;;;;;;;;;;;;;;;5029828;28;19928;-80
2022/12/05 14:52:07;;;;;;;;;;;;;;;;;;5029131;28;19929;-80
2022/12/05 14:54:40;;;;;;;;;;;;;;;;;;5029043;28;19940;-80
2022/12/05 14:57:07;;;;;;;;;;;;;;;;;;5026231;28;19929;-80
2022/12/05 14:59:35;;;;;;;;;;;;;;;;;;5029299;28;19924;-80
2022/12/05 15:02:02;;;;;;;;;;;;;;;;;;5025505;28;19935;-81
2022/12/05 15:04:30;;;;;;;;;;;;;;;;;;5024248;28;19929;-81
2022/12/05 15:06:57;;;;;;;;;;;;;;;;;;5029369;28;19936;-82
2022/12/05 15:09:30;;;;;;;;;;;;;;;;;;5026392;28;19929;-81
2022/12/05 15:11:58;;;;;;;;;;;;;;;;;;5025990;28;19935;-80
2022/12/05 15:14:25;;;;;;;;;;;;;;;;;;5027357;28;19943;-81
2022/12/05 15:16:58;;;;;;;;;;;;;;;;;;5041474;28;19987;-83
2022/12/05 15:19:28;;;;;;;;;;;;;;;;;;5027039;28;19928;-83
2022/12/05 15:21:56;;;;;;;;;;;;;;;;;;5022681;28;19929;-82
2022/12/05 15:24:23;;;;;;;;;;;;;;;;;;5025248;28;19928;-80
2022/12/05 15:26:51;;;;;;;;;;;;;;;;;;5027965;28;19951;-81
2022/12/05 15:29:19;;;;;;;;;;;;;;;;;;5021989;28;20587;-81
2022/12/05 15:31:51;;;;;;;;;;;;;;;;;;5021581;28;19960;-82
2022/12/05 15:34:24;;;;;;;;;;;;;;;;;;5012276;28;19929;-81
2022/12/05 15:36:56;;;;;;;;;;;;;;;;;;5028510;28;19929;-82
2022/12/05 15:39:24;;;;;;;;;;;;;;;;;;5025041;28;19940;-83
2022/12/05 15:41:54;;;;;;;;;;;;;;;;;;5022300;28;20486;-81
2022/12/05 15:44:26;;;;;;;;;;;;;;;;;;5023901;28;19939;-79
2022/12/05 15:46:54;;;;;;;;;;;;;;;;;;5023731;28;19940;-80
2022/12/05 15:49:22;;;;;;;;;;;;;;;;;;5022764;28;19933;-84
2022/12/05 15:51:54;;;;;;;;;;;;;;;;;;5027807;28;19932;-82
2022/12/05 15:54:28;;;;;;;;;;;;;;;;;;5025799;28;19932;-83
2022/12/05 15:56:56;;;;;;;;;;;;;;;;;;5029895;28;19940;-83
2022/12/05 15:59:28;;;;;;;;;;;;;;;;;;5022757;28;20497;-82
2022/12/05 16:01:56;;;;;;;;;;;;;;;;;;5023516;28;19932;-82
2022/12/05 16:04:23;;;;;;;;;;;;;;;;;;5034127;28;19929;-81
2022/12/05 16:06:57;;;;;;;;;;;;;;;;;;5025809;28;20510;-83
2022/12/05 16:09:29;;;;;;;;;;;;;;;;;;5025500;28;19933;-81
2022/12/05 16:12:02;;;;;;;;;;;;;;;;;;5022467;28;19955;-83
2022/12/05 16:14:34;;;;;;;;;;;;;;;;;;5033835;28;19940;-84
2022/12/05 16:17:03;;;;;;;;;;;;;;;;;;5029244;28;20313;-82
2022/12/05 16:19:31;;;;;;;;;;;;;;;;;;5026284;28;19944;-81
2022/12/05 16:22:03;;;;;;;;;;;;;;;;;;5027257;28;19929;-81
2022/12/05 16:24:31;;;;;;;;;;;;;;;;;;5029298;28;19933;-82
2022/12/05 16:27:03;;;;;;;;;;;;;;;;;;5030595;28;19929;-82
2022/12/05 16:29:31;;;;;;;;;;;;;;;;;;5045390;28;19932;-80
2022/12/05 16:31:58;;;;;;;;;;;;;;;;;;5022378;28;19932;-84
2022/12/05 16:34:31;;;;;;;;;;;;;;;;;;5023684;28;21361;-86
2022/12/05 16:36:58;;;;;;;;;;;;;;;;;;5015483;28;19944;-81
2022/12/05 16:39:27;;;;;;;;;;;;;;;;;;5016268;28;19924;-80
2022/12/05 16:41:54;;;;;;;;;;;;;;;;;;5030361;28;19933;-80
2022/12/05 16:44:27;;;;;;;;;;;;;;;;;;5020830;28;19933;-81
2022/12/05 16:46:59;;;;;;;;;;;;;;;;;;5024159;28;20496;-79
2022/12/05 16:49:27;;;;;;;;;;;;;;;;;;5026196;28;19939;-80
2022/12/05 16:51:54;;;;;;;;;;;;;;;;;;5022317;28;19933;-83
2022/12/05 16:54:22;;;;;;;;;;;;;;;;;;5025811;28;20453;-82
2022/12/05 16:56:49;;;;;;;;;;;;;;;;;;5025767;28;20738;-80
2022/12/05 16:59:17;;;;;;;;;;;;;;;;;;5021681;28;19941;-81
2022/12/05 17:01:50;;;;;;;;;;;;;;;;;;5019197;28;19933;-82
2022/12/05 17:04:17;;;;;;;;;;;;;;;;;;5017123;28;19956;-84
2022/12/05 17:06:45;;;;;;;;;;;;;;;;;;5017323;28;19987;-82
2022/12/05 17:09:12;;;;;;;;;;;;;;;;;;5021593;28;19933;-81
2022/12/05 17:11:45;;;;;;;;;;;;;;;;;;5024538;28;19940;-82
2022/12/05 17:14:12;;;;;;;;;;;;;;;;;;5020654;28;19936;-82
2022/12/05 17:16:40;;;;;;;;;;;;;;;;;;5018142;28;19932;-81